sensor_id;sensor_type;location;lat;lon;timestamp;pressure;altitude;pressure_sealevel;temperature;humidity
64844;BME280;51310;52.198;5.422;2023-05-01T00:00:13;101628.84;;;9.59;100.00
64844;BME280;51310;52.198;5.422;2023-05-01T00:02:39;101630.91;;;9.54;100.00
64844;BME280;51310;52.198;5.422;2023-05-01T00:05:05;101630.19;;;9.55;100.00
64844;BME280;51310;52.198;5.422;2023-05-01T00:07:32;101633.72;;;9.49;100.00
64844;BME280;51310;52.198;5.422;2023-05-01T00:09:58;101632.81;;;9.41;100.00
64844;BME280;51310;52.198;5.422;2023-05-01T00:12:24;101624.41;;;9.35;100.00
64844;BME280;51310;52.198;5.422;2023-05-01T00:14:50;101626.25;;;9.36;100.00
64844;BME280;51310;52.198;5.422;2023-05-01T00:17:16;101617.66;;;9.28;100.00
64844;BME280;51310;52.198;5.422;2023-05-01T00:19:41;101619.13;;;9.26;100.00
64844;BME280;51310;52.198;5.422;2023-05-01T00:22:07;101614.19;;;9.28;100.00
64844;BME280;51310;52.198;5.422;2023-05-01T00:24:33;101617.53;;;9.19;100.00
64844;BME280;51310;52.198;5.422;2023-05-01T00:26:59;101607.75;;;9.31;100.00
64844;BME280;51310;52.198;5.422;2023-05-01T00:29:24;101605.00;;;9.30;100.00
64844;BME280;51310;52.198;5.422;2023-05-01T00:31:50;101601.72;;;9.23;100.00
64844;BME280;51310;52.198;5.422;2023-05-01T00:34:16;101603.06;;;9.13;100.00
64844;BME280;51310;52.198;5.422;2023-05-01T00:36:41;101596.50;;;9.08;100.00
64844;BME280;51310;52.198;5.422;2023-05-01T00:39:07;101594.66;;;9.07;100.00
64844;BME280;51310;52.198;5.422;2023-05-01T00:41:34;101588.94;;;9.16;100.00
64844;BME280;51310;52.198;5.422;2023-05-01T00:44:00;101592.59;;;9.18;100.00
64844;BME280;51310;52.198;5.422;2023-05-01T00:46:27;101584.78;;;9.02;100.00
64844;BME280;51310;52.198;5.422;2023-05-01T00:48:56;101578.41;;;8.92;100.00
64844;BME280;51310;52.198;5.422;2023-05-01T00:51:22;101568.00;;;8.90;100.00
64844;BME280;51310;52.198;5.422;2023-05-01T00:53:48;101565.56;;;8.92;100.00
64844;BME280;51310;52.198;5.422;2023-05-01T00:56:14;101569.22;;;9.01;100.00
64844;BME280;51310;52.198;5.422;2023-05-01T00:58:40;101562.03;;;9.06;100.00
64844;BME280;51310;52.198;5.422;2023-05-01T01:01:06;101555.50;;;8.93;100.00
64844;BME280;51310;52.198;5.422;2023-05-01T01:03:35;101554.91;;;8.96;100.00
64844;BME280;51310;52.198;5.422;2023-05-01T01:06:41;101546.94;;;8.86;100.00
64844;BME280;51310;52.198;5.422;2023-05-01T01:09:32;101543.59;;;8.87;100.00
64844;BME280;51310;52.198;5.422;2023-05-01T01:12:26;101542.34;;;8.83;100.00
64844;BME280;51310;52.198;5.422;2023-05-01T01:15:29;101543.47;;;8.78;100.00
64844;BME280;51310;52.198;5.422;2023-05-01T01:18:11;101542.25;;;8.67;100.00
64844;BME280;51310;52.198;5.422;2023-05-01T01:20:45;101532.16;;;8.61;100.00
64844;BME280;51310;52.198;5.422;2023-05-01T01:23:58;101529.06;;;8.57;100.00
64844;BME280;51310;52.198;5.422;2023-05-01T01:27:18;101533.13;;;8.55;100.00
64844;BME280;51310;52.198;5.422;2023-05-01T01:30:31;101523.09;;;8.42;100.00
64844;BME280;51310;52.198;5.422;2023-05-01T01:36:11;101516.00;;;8.25;100.00
64844;BME280;51310;52.198;5.422;2023-05-01T01:38:45;101518.94;;;8.21;100.00
64844;BME280;51310;52.198;5.422;2023-05-01T01:41:25;101514.13;;;8.24;100.00
64844;BME280;51310;52.198;5.422;2023-05-01T01:44:37;101506.81;;;8.27;100.00
64844;BME280;51310;52.198;5.422;2023-05-01T01:47:07;101504.41;;;8.29;100.00
64844;BME280;51310;52.198;5.422;2023-05-01T01:49:39;101499.13;;;8.27;100.00
64844;BME280;51310;52.198;5.422;2023-05-01T01:52:11;101494.75;;;8.19;100.00
64844;BME280;51310;52.198;5.422;2023-05-01T01:54:57;101487.03;;;8.26;100.00
64844;BME280;51310;52.198;5.422;2023-05-01T01:57:26;101481.56;;;8.16;100.00
64844;BME280;51310;52.198;5.422;2023-05-01T01:59:54;101476.81;;;8.12;100.00
64844;BME280;51310;52.198;5.422;2023-05-01T02:02:21;101478.66;;;8.13;100.00
64844;BME280;51310;52.198;5.422;2023-05-01T02:04:48;101463.56;;;8.30;100.00
64844;BME280;51310;52.198;5.422;2023-05-01T02:07:17;101476.66;;;8.10;100.00
64844;BME280;51310;52.198;5.422;2023-05-01T02:09:45;101457.38;;;8.14;100.00
64844;BME280;51310;52.198;5.422;2023-05-01T02:12:13;101463.47;;;8.07;100.00
64844;BME280;51310;52.198;5.422;2023-05-01T02:14:41;101451.69;;;8.24;100.00
64844;BME280;51310;52.198;5.422;2023-05-01T02:17:09;101455.75;;;8.07;100.00
64844;BME280;51310;52.198;5.422;2023-05-01T02:19:37;101461.66;;;8.06;100.00
64844;BME280;51310;52.198;5.422;2023-05-01T02:22:08;101455.59;;;7.98;100.00
64844;BME280;51310;52.198;5.422;2023-05-01T02:24:36;101457.44;;;7.99;100.00
64844;BME280;51310;52.198;5.422;2023-05-01T02:27:14;101453.03;;;7.98;100.00
64844;BME280;51310;52.198;5.422;2023-05-01T02:29:40;101446.81;;;8.04;100.00
64844;BME280;51310;52.198;5.422;2023-05-01T02:32:07;101442.63;;;7.97;100.00
64844;BME280;51310;52.198;5.422;2023-05-01T02:34:35;101444.66;;;7.85;100.00
64844;BME280;51310;52.198;5.422;2023-05-01T02:37:05;101434.22;;;7.84;100.00
64844;BME280;51310;52.198;5.422;2023-05-01T02:39:33;101441.38;;;7.79;100.00
64844;BME280;51310;52.198;5.422;2023-05-01T02:42:00;101438.81;;;7.79;100.00
64844;BME280;51310;52.198;5.422;2023-05-01T02:44:45;101430.56;;;7.89;100.00
64844;BME280;51310;52.198;5.422;2023-05-01T02:47:19;101436.59;;;7.89;100.00
64844;BME280;51310;52.198;5.422;2023-05-01T02:49:47;101423.47;;;7.72;100.00
64844;BME280;51310;52.198;5.422;2023-05-01T02:52:16;101423.09;;;7.69;100.00
64844;BME280;51310;52.198;5.422;2023-05-01T02:54:44;101422.53;;;7.78;100.00
64844;BME280;51310;52.198;5.422;2023-05-01T02:57:10;101422.91;;;7.74;100.00
64844;BME280;51310;52.198;5.422;2023-05-01T02:59:36;101415.59;;;7.70;100.00
64844;BME280;51310;52.198;5.422;2023-05-01T03:02:03;101417.22;;;7.84;100.00
64844;BME280;51310;52.198;5.422;2023-05-01T03:04:29;101411.94;;;7.75;100.00
64844;BME280;51310;52.198;5.422;2023-05-01T03:06:54;101409.38;;;7.68;100.00
64844;BME280;51310;52.198;5.422;2023-05-01T03:09:21;101410.28;;;7.76;100.00
64844;BME280;51310;52.198;5.422;2023-05-01T03:11:47;101400.94;;;7.76;100.00
64844;BME280;51310;52.198;5.422;2023-05-01T03:14:15;101394.53;;;7.80;100.00
64844;BME280;51310;52.198;5.422;2023-05-01T03:16:40;101396.38;;;7.74;100.00
64844;BME280;51310;52.198;5.422;2023-05-01T03:19:06;101390.72;;;7.69;100.00
64844;BME280;51310;52.198;5.422;2023-05-01T03:21:32;101390.53;;;7.68;100.00
64844;BME280;51310;52.198;5.422;2023-05-01T03:23:59;101389.97;;;7.70;100.00
64844;BME280;51310;52.198;5.422;2023-05-01T03:26:24;101383.19;;;7.78;100.00
64844;BME280;51310;52.198;5.422;2023-05-01T03:28:50;101380.25;;;7.75;100.00
64844;BME280;51310;52.198;5.422;2023-05-01T03:31:16;101374.91;;;7.88;100.00
64844;BME280;51310;52.198;5.422;2023-05-01T03:33:42;101379.88;;;7.86;100.00
64844;BME280;51310;52.198;5.422;2023-05-01T03:36:07;101368.53;;;7.84;100.00
64844;BME280;51310;52.198;5.422;2023-05-01T03:38:36;101370.34;;;7.85;100.00
64844;BME280;51310;52.198;5.422;2023-05-01T03:41:02;101377.13;;;7.85;100.00
64844;BME280;51310;52.198;5.422;2023-05-01T03:43:29;101372.00;;;7.85;100.00
64844;BME280;51310;52.198;5.422;2023-05-01T03:45:56;101369.97;;;7.89;100.00
64844;BME280;51310;52.198;5.422;2023-05-01T03:48:21;101358.44;;;7.86;100.00
64844;BME280;51310;52.198;5.422;2023-05-01T03:50:47;101365.03;;;7.91;100.00
64844;BME280;51310;52.198;5.422;2023-05-01T03:53:13;101361.00;;;7.93;100.00
64844;BME280;51310;52.198;5.422;2023-05-01T03:55:39;101360.44;;;7.95;100.00
64844;BME280;51310;52.198;5.422;2023-05-01T03:58:05;101354.59;;;7.89;100.00
64844;BME280;51310;52.198;5.422;2023-05-01T04:00:32;101354.59;;;7.89;100.00
64844;BME280;51310;52.198;5.422;2023-05-01T04:02:58;101350.59;;;7.84;100.00
64844;BME280;51310;52.198;5.422;2023-05-01T04:05:23;101351.28;;;7.90;100.00
64844;BME280;51310;52.198;5.422;2023-05-01T04:07:49;101349.66;;;7.91;100.00
64844;BME280;51310;52.198;5.422;2023-05-01T04:10:16;101350.19;;;7.88;100.00
64844;BME280;51310;52.198;5.422;2023-05-01T04:12:42;101345.28;;;7.83;100.00
64844;BME280;51310;52.198;5.422;2023-05-01T04:15:08;101343.44;;;7.89;100.00
64844;BME280;51310;52.198;5.422;2023-05-01T04:17:35;101340.13;;;7.90;100.00
64844;BME280;51310;52.198;5.422;2023-05-01T04:20:02;101344.34;;;7.89;100.00
64844;BME280;51310;52.198;5.422;2023-05-01T04:22:29;101337.75;;;7.91;100.00
64844;BME280;51310;52.198;5.422;2023-05-01T04:24:56;101348.38;;;7.87;100.00
64844;BME280;51310;52.198;5.422;2023-05-01T04:27:21;101360.38;;;8.02;100.00
64844;BME280;51310;52.198;5.422;2023-05-01T04:29:47;101356.78;;;7.93;100.00
64844;BME280;51310;52.198;5.422;2023-05-01T04:32:13;101361.59;;;7.76;100.00
64844;BME280;51310;52.198;5.422;2023-05-01T04:34:39;101351.13;;;7.81;100.00
64844;BME280;51310;52.198;5.422;2023-05-01T04:37:04;101354.44;;;7.80;100.00
64844;BME280;51310;52.198;5.422;2023-05-01T04:39:33;101353.34;;;7.78;100.00
64844;BME280;51310;52.198;5.422;2023-05-01T04:41:59;101355.72;;;7.84;100.00
64844;BME280;51310;52.198;5.422;2023-05-01T04:44:25;101348.41;;;7.80;100.00
64844;BME280;51310;52.198;5.422;2023-05-01T04:46:50;101351.50;;;7.85;100.00
64844;BME280;51310;52.198;5.422;2023-05-01T04:49:16;101350.56;;;7.91;100.00
64844;BME280;51310;52.198;5.422;2023-05-01T04:51:42;101347.63;;;7.88;100.00
64844;BME280;51310;52.198;5.422;2023-05-01T04:54:07;101342.69;;;7.97;100.00
64844;BME280;51310;52.198;5.422;2023-05-01T04:56:33;101346.09;;;8.05;100.00
64844;BME280;51310;52.198;5.422;2023-05-01T04:58:59;101340.97;;;8.05;100.00
64844;BME280;51310;52.198;5.422;2023-05-01T05:01:24;101350.31;;;8.04;100.00
64844;BME280;51310;52.198;5.422;2023-05-01T05:03:50;101343.09;;;8.16;100.00
64844;BME280;51310;52.198;5.422;2023-05-01T05:06:16;101340.16;;;8.20;100.00
64844;BME280;51310;52.198;5.422;2023-05-01T05:08:41;101340.53;;;8.16;100.00
64844;BME280;51310;52.198;5.422;2023-05-01T05:11:07;101345.84;;;8.17;100.00
64844;BME280;51310;52.198;5.422;2023-05-01T05:13:33;101335.53;;;8.25;100.00
64844;BME280;51310;52.198;5.422;2023-05-01T05:15:59;101342.28;;;8.31;100.00
64844;BME280;51310;52.198;5.422;2023-05-01T05:18:25;101339.69;;;8.38;100.00
64844;BME280;51310;52.198;5.422;2023-05-01T05:20:50;101343.91;;;8.45;100.00
64844;BME280;51310;52.198;5.422;2023-05-01T05:23:16;101342.94;;;8.52;100.00
64844;BME280;51310;52.198;5.422;2023-05-01T05:25:42;101347.84;;;8.57;100.00
64844;BME280;51310;52.198;5.422;2023-05-01T05:28:07;101343.63;;;8.58;100.00
64844;BME280;51310;52.198;5.422;2023-05-01T05:30:33;101343.94;;;8.61;100.00
64844;BME280;51310;52.198;5.422;2023-05-01T05:32:59;101342.25;;;8.69;100.00
64844;BME280;51310;52.198;5.422;2023-05-01T05:35:25;101334.44;;;8.60;100.00
64844;BME280;51310;52.198;5.422;2023-05-01T05:37:52;101339.31;;;8.73;100.00
64844;BME280;51310;52.198;5.422;2023-05-01T05:40:17;101335.53;;;8.62;100.00
64844;BME280;51310;52.198;5.422;2023-05-01T05:42:43;101335.41;;;8.76;100.00
64844;BME280;51310;52.198;5.422;2023-05-01T05:45:09;101336.84;;;8.58;100.00
64844;BME280;51310;52.198;5.422;2023-05-01T05:47:35;101332.66;;;8.52;100.00
64844;BME280;51310;52.198;5.422;2023-05-01T05:50:01;101326.88;;;8.38;100.00
64844;BME280;51310;52.198;5.422;2023-05-01T05:52:26;101330.22;;;8.60;100.00
64844;BME280;51310;52.198;5.422;2023-05-01T05:54:52;101329.91;;;8.57;100.00
64844;BME280;51310;52.198;5.422;2023-05-01T05:57:18;101324.56;;;8.56;100.00
64844;BME280;51310;52.198;5.422;2023-05-01T05:59:43;101325.31;;;8.55;100.00
64844;BME280;51310;52.198;5.422;2023-05-01T06:02:09;101316.88;;;8.56;100.00
64844;BME280;51310;52.198;5.422;2023-05-01T06:04:35;101321.09;;;8.78;100.00
64844;BME280;51310;52.198;5.422;2023-05-01T06:07:00;101319.56;;;8.88;100.00
64844;BME280;51310;52.198;5.422;2023-05-01T06:09:26;101318.13;;;8.82;100.00
64844;BME280;51310;52.198;5.422;2023-05-01T06:11:52;101320.69;;;8.82;100.00
64844;BME280;51310;52.198;5.422;2023-05-01T06:14:17;101318.03;;;8.90;100.00
64844;BME280;51310;52.198;5.422;2023-05-01T06:16:43;101323.97;;;9.04;100.00
64844;BME280;51310;52.198;5.422;2023-05-01T06:19:10;101325.44;;;9.02;100.00
64844;BME280;51310;52.198;5.422;2023-05-01T06:21:36;101322.34;;;9.05;100.00
64844;BME280;51310;52.198;5.422;2023-05-01T06:24:02;101317.44;;;8.99;100.00
64844;BME280;51310;52.198;5.422;2023-05-01T06:26:28;101322.34;;;9.21;100.00
64844;BME280;51310;52.198;5.422;2023-05-01T06:28:54;101319.78;;;9.37;100.00
64844;BME280;51310;52.198;5.422;2023-05-01T06:31:20;101315.69;;;9.46;100.00
64844;BME280;51310;52.198;5.422;2023-05-01T06:33:45;101314.84;;;9.70;100.00
64844;BME280;51310;52.198;5.422;2023-05-01T06:36:11;101314.50;;;9.67;100.00
64844;BME280;51310;52.198;5.422;2023-05-01T06:38:37;101316.16;;;9.67;100.00
64844;BME280;51310;52.198;5.422;2023-05-01T06:41:04;101309.59;;;9.77;100.00
64844;BME280;51310;52.198;5.422;2023-05-01T06:43:29;101308.78;;;9.85;100.00
64844;BME280;51310;52.198;5.422;2023-05-01T06:45:56;101313.38;;;9.97;100.00
64844;BME280;51310;52.198;5.422;2023-05-01T06:48:22;101305.91;;;9.91;100.00
64844;BME280;51310;52.198;5.422;2023-05-01T06:50:48;101303.69;;;9.94;100.00
64844;BME280;51310;52.198;5.422;2023-05-01T06:53:13;101305.91;;;9.91;100.00
64844;BME280;51310;52.198;5.422;2023-05-01T06:55:39;101308.22;;;9.72;100.00
64844;BME280;51310;52.198;5.422;2023-05-01T06:58:05;101311.34;;;9.70;100.00
64844;BME280;51310;52.198;5.422;2023-05-01T07:00:32;101308.34;;;9.74;100.00
64844;BME280;51310;52.198;5.422;2023-05-01T07:02:58;101308.22;;;9.72;100.00
64844;BME280;51310;52.198;5.422;2023-05-01T07:05:24;101302.78;;;9.94;100.00
64844;BME280;51310;52.198;5.422;2023-05-01T07:07:50;101302.56;;;9.83;100.00
64844;BME280;51310;52.198;5.422;2023-05-01T07:10:15;101305.09;;;9.99;100.00
64844;BME280;51310;52.198;5.422;2023-05-01T07:12:41;101302.78;;;9.94;100.00
64844;BME280;51310;52.198;5.422;2023-05-01T07:15:07;101299.28;;;9.93;100.00
64844;BME280;51310;52.198;5.422;2023-05-01T07:17:33;101301.97;;;10.11;100.00
64844;BME280;51310;52.198;5.422;2023-05-01T07:19:59;101309.03;;;10.20;100.00
64844;BME280;51310;52.198;5.422;2023-05-01T07:22:26;101304.72;;;10.12;100.00
64844;BME280;51310;52.198;5.422;2023-05-01T07:24:53;101301.69;;;10.32;100.00
64844;BME280;51310;52.198;5.422;2023-05-01T07:27:19;101304.28;;;10.32;100.00
64844;BME280;51310;52.198;5.422;2023-05-01T07:29:45;101298.22;;;10.32;100.00
64844;BME280;51310;52.198;5.422;2023-05-01T07:32:10;101301.56;;;10.31;100.00
64844;BME280;51310;52.198;5.422;2023-05-01T07:34:36;101290.72;;;10.42;100.00
64844;BME280;51310;52.198;5.422;2023-05-01T07:37:02;101299.13;;;10.57;100.00
64844;BME280;51310;52.198;5.422;2023-05-01T07:39:29;101301.44;;;10.71;100.00
64844;BME280;51310;52.198;5.422;2023-05-01T07:41:58;101302.47;;;10.89;100.00
64844;BME280;51310;52.198;5.422;2023-05-01T07:44:24;101297.38;;;11.15;100.00
64844;BME280;51310;52.198;5.422;2023-05-01T07:46:50;101300.88;;;11.24;100.00
64844;BME280;51310;52.198;5.422;2023-05-01T07:49:15;101303.19;;;11.30;100.00
64844;BME280;51310;52.198;5.422;2023-05-01T07:51:41;101297.56;;;11.17;100.00
64844;BME280;51310;52.198;5.422;2023-05-01T07:54:07;101300.00;;;11.33;100.00
64844;BME280;51310;52.198;5.422;2023-05-01T07:56:33;101302.16;;;11.54;100.00
64844;BME280;51310;52.198;5.422;2023-05-01T07:58:58;101297.75;;;11.53;100.00
64844;BME280;51310;52.198;5.422;2023-05-01T08:01:24;101301.09;;;11.61;100.00
64844;BME280;51310;52.198;5.422;2023-05-01T08:03:50;101296.72;;;11.60;100.00
64844;BME280;51310;52.198;5.422;2023-05-01T08:06:16;101296.09;;;11.62;100.00
64844;BME280;51310;52.198;5.422;2023-05-01T08:08:41;101295.94;;;11.69;100.00
64844;BME280;51310;52.198;5.422;2023-05-01T08:11:08;101295.78;;;11.68;100.00
64844;BME280;51310;52.198;5.422;2023-05-01T08:13:34;101299.44;;;11.70;100.00
64844;BME280;51310;52.198;5.422;2023-05-01T08:16:01;101308.38;;;11.47;100.00
64844;BME280;51310;52.198;5.422;2023-05-01T08:18:28;101298.22;;;11.58;100.00
64844;BME280;51310;52.198;5.422;2023-05-01T08:20:54;101302.16;;;11.63;100.00
64844;BME280;51310;52.198;5.422;2023-05-01T08:23:20;101288.03;;;11.85;100.00
64844;BME280;51310;52.198;5.422;2023-05-01T08:25:46;101303.72;;;11.96;100.00
64844;BME280;51310;52.198;5.422;2023-05-01T08:28:13;101298.25;;;12.01;100.00
64844;BME280;51310;52.198;5.422;2023-05-01T08:30:39;101295.66;;;12.19;100.00
64844;BME280;51310;52.198;5.422;2023-05-01T08:33:05;101290.63;;;12.29;100.00
64844;BME280;51310;52.198;5.422;2023-05-01T08:35:30;101290.31;;;12.26;100.00
64844;BME280;51310;52.198;5.422;2023-05-01T08:37:56;101295.44;;;12.43;100.00
64844;BME280;51310;52.198;5.422;2023-05-01T08:40:24;101295.63;;;12.36;100.00
64844;BME280;51310;52.198;5.422;2023-05-01T08:42:50;101296.63;;;12.56;100.00
64844;BME280;51310;52.198;5.422;2023-05-01T08:45:18;101300.38;;;12.68;100.00
64844;BME280;51310;52.198;5.422;2023-05-01T08:47:48;101300.78;;;12.81;100.00
64844;BME280;51310;52.198;5.422;2023-05-01T08:50:16;101304.13;;;12.80;100.00
64844;BME280;51310;52.198;5.422;2023-05-01T08:52:42;101306.72;;;12.71;100.00
64844;BME280;51310;52.198;5.422;2023-05-01T08:55:14;101310.09;;;12.70;100.00
64844;BME280;51310;52.198;5.422;2023-05-01T08:57:47;101304.13;;;12.80;100.00
64844;BME280;51310;52.198;5.422;2023-05-01T09:00:23;101302.19;;;13.05;100.00
64844;BME280;51310;52.198;5.422;2023-05-01T09:02:50;101307.63;;;12.72;100.00
64844;BME280;51310;52.198;5.422;2023-05-01T09:05:20;101302.53;;;12.55;100.00
64844;BME280;51310;52.198;5.422;2023-05-01T09:07:47;101302.91;;;12.85;100.00
64844;BME280;51310;52.198;5.422;2023-05-01T09:10:15;101298.94;;;12.80;100.00
64844;BME280;51310;52.198;5.422;2023-05-01T09:12:46;101304.00;;;12.79;100.00
64844;BME280;51310;52.198;5.422;2023-05-01T09:15:13;101310.56;;;13.58;100.00
64844;BME280;51310;52.198;5.422;2023-05-01T09:17:41;101307.16;;;13.68;99.86
64844;BME280;51310;52.198;5.422;2023-05-01T09:20:07;101314.53;;;12.99;100.00
64844;BME280;51310;52.198;5.422;2023-05-01T09:22:34;101315.66;;;13.20;100.00
64844;BME280;51310;52.198;5.422;2023-05-01T09:25:01;101311.81;;;13.25;100.00
64844;BME280;51310;52.198;5.422;2023-05-01T09:27:33;101314.91;;;13.87;98.75
64844;BME280;51310;52.198;5.422;2023-05-01T09:29:59;101310.72;;;13.79;99.29
64844;BME280;51310;52.198;5.422;2023-05-01T09:32:26;101306.09;;;13.66;100.00
64844;BME280;51310;52.198;5.422;2023-05-01T09:35:09;101304.75;;;13.80;100.00
64844;BME280;51310;52.198;5.422;2023-05-01T09:37:36;101310.75;;;14.08;98.13
64844;BME280;51310;52.198;5.422;2023-05-01T09:40:13;101313.88;;;13.85;99.97
64844;BME280;51310;52.198;5.422;2023-05-01T09:42:50;101315.19;;;13.71;98.34
64844;BME280;51310;52.198;5.422;2023-05-01T09:45:17;101323.78;;;13.99;93.17
64844;BME280;51310;52.198;5.422;2023-05-01T09:47:46;101320.13;;;14.16;93.12
64844;BME280;51310;52.198;5.422;2023-05-01T09:50:33;101322.94;;;14.09;92.86
64844;BME280;51310;52.198;5.422;2023-05-01T09:53:04;101321.81;;;13.97;94.12
64844;BME280;51310;52.198;5.422;2023-05-01T09:55:32;101316.28;;;14.50;91.83
64844;BME280;51310;52.198;5.422;2023-05-01T09:57:58;101321.88;;;14.26;93.21
64844;BME280;51310;52.198;5.422;2023-05-01T10:00:24;101316.41;;;14.23;90.58
64844;BME280;51310;52.198;5.422;2023-05-01T10:02:51;101325.53;;;14.09;93.12
64844;BME280;51310;52.198;5.422;2023-05-01T10:05:18;101319.66;;;14.01;95.19
64844;BME280;51310;52.198;5.422;2023-05-01T10:07:59;101321.69;;;14.43;89.31
64844;BME280;51310;52.198;5.422;2023-05-01T10:10:26;101310.88;;;14.97;86.89
64844;BME280;51310;52.198;5.422;2023-05-01T10:12:52;101314.22;;;14.86;84.45
64844;BME280;51310;52.198;5.422;2023-05-01T10:15:18;101320.09;;;15.04;84.46
64844;BME280;51310;52.198;5.422;2023-05-01T10:17:48;101316.41;;;14.52;81.27
64844;BME280;51310;52.198;5.422;2023-05-01T10:20:14;101315.09;;;14.76;80.74
64844;BME280;51310;52.198;5.422;2023-05-01T10:22:40;101316.03;;;14.87;83.99
64844;BME280;51310;52.198;5.422;2023-05-01T10:25:11;101317.41;;;14.63;86.18
64844;BME280;51310;52.198;5.422;2023-05-01T10:27:39;101322.84;;;14.66;86.38
64844;BME280;51310;52.198;5.422;2023-05-01T10:30:09;101324.47;;;14.84;86.36
64844;BME280;51310;52.198;5.422;2023-05-01T10:32:36;101322.97;;;14.67;89.03
64844;BME280;51310;52.198;5.422;2023-05-01T10:35:27;101317.19;;;14.80;87.60
64844;BME280;51310;52.198;5.422;2023-05-01T10:38:03;101328.16;;;14.67;84.88
64844;BME280;51310;52.198;5.422;2023-05-01T10:45:43;101328.69;;;15.33;79.27
64844;BME280;51310;52.198;5.422;2023-05-01T10:48:10;101332.91;;;15.02;80.48
64844;BME280;51310;52.198;5.422;2023-05-01T10:51:19;101334.38;;;15.19;79.04
64844;BME280;51310;52.198;5.422;2023-05-01T10:53:47;101330.47;;;15.24;80.75
64844;BME280;51310;52.198;5.422;2023-05-01T10:58:58;101329.34;;;15.72;79.84
64844;BME280;51310;52.198;5.422;2023-05-01T11:01:40;101331.28;;;15.44;81.42
64844;BME280;51310;52.198;5.422;2023-05-01T11:09:53;101338.53;;;15.99;83.28
64844;BME280;51310;52.198;5.422;2023-05-01T11:15:24;101337.44;;;16.17;86.27
64844;BME280;51310;52.198;5.422;2023-05-01T11:17:50;101333.81;;;16.15;91.14
64844;BME280;51310;52.198;5.422;2023-05-01T11:22:53;101337.91;;;15.91;92.91
64844;BME280;51310;52.198;5.422;2023-05-01T11:25:30;101335.59;;;15.84;92.39
64844;BME280;51310;52.198;5.422;2023-05-01T11:28:02;101333.22;;;15.67;94.33
64844;BME280;51310;52.198;5.422;2023-05-01T11:30:38;101337.00;;;15.81;92.44
64844;BME280;51310;52.198;5.422;2023-05-01T11:33:04;101332.75;;;15.81;89.69
64844;BME280;51310;52.198;5.422;2023-05-01T11:35:32;101333.38;;;15.78;89.09
64844;BME280;51310;52.198;5.422;2023-05-01T11:37:57;101333.91;;;15.74;88.91
64844;BME280;51310;52.198;5.422;2023-05-01T11:40:32;101331.06;;;15.71;88.16
64844;BME280;51310;52.198;5.422;2023-05-01T11:43:07;101324.91;;;15.91;89.21
64844;BME280;51310;52.198;5.422;2023-05-01T11:45:36;101327.66;;;15.93;90.89
64844;BME280;51310;52.198;5.422;2023-05-01T11:48:02;101327.66;;;15.93;92.72
64844;BME280;51310;52.198;5.422;2023-05-01T11:50:33;101324.91;;;15.91;90.74
64844;BME280;51310;52.198;5.422;2023-05-01T11:53:01;101327.41;;;15.79;91.17
64844;BME280;51310;52.198;5.422;2023-05-01T11:55:34;101331.19;;;15.73;88.63
64844;BME280;51310;52.198;5.422;2023-05-01T11:58:00;101327.41;;;15.79;90.33
64844;BME280;51310;52.198;5.422;2023-05-01T12:00:38;101330.09;;;15.91;90.29
64844;BME280;51310;52.198;5.422;2023-05-01T12:03:08;101334.69;;;15.84;91.47
64844;BME280;51310;52.198;5.422;2023-05-01T12:05:38;101319.09;;;15.84;88.43
64844;BME280;51310;52.198;5.422;2023-05-01T12:08:19;101332.97;;;15.94;87.56
64844;BME280;51310;52.198;5.422;2023-05-01T12:13:14;101342.72;;;15.66;86.23
64844;BME280;51310;52.198;5.422;2023-05-01T12:15:44;101347.22;;;15.48;88.19
64844;BME280;51310;52.198;5.422;2023-05-01T12:18:12;101345.41;;;15.27;86.46
64844;BME280;51310;52.198;5.422;2023-05-01T12:20:47;101350.09;;;15.21;88.98
64844;BME280;51310;52.198;5.422;2023-05-01T12:23:15;101353.16;;;15.27;87.04
64844;BME280;51310;52.198;5.422;2023-05-01T12:25:42;101347.84;;;15.15;86.31
64844;BME280;51310;52.198;5.422;2023-05-01T12:28:16;101344.34;;;15.25;88.19
64844;BME280;51310;52.198;5.422;2023-05-01T12:30:45;101347.47;;;15.10;86.46
64844;BME280;51310;52.198;5.422;2023-05-01T12:33:14;101360.53;;;15.02;86.19
64844;BME280;51310;52.198;5.422;2023-05-01T12:35:42;101354.16;;;14.98;85.89
64844;BME280;51310;52.198;5.422;2023-05-01T12:38:21;101354.13;;;14.77;90.80
64844;BME280;51310;52.198;5.422;2023-05-01T12:40:55;101353.78;;;14.64;93.89
64844;BME280;51310;52.198;5.422;2023-05-01T12:43:30;101350.44;;;14.65;96.87
64844;BME280;51310;52.198;5.422;2023-05-01T12:45:56;101351.63;;;14.79;100.00
64844;BME280;51310;52.198;5.422;2023-05-01T12:48:23;101356.66;;;14.67;100.00
64844;BME280;51310;52.198;5.422;2023-05-01T12:50:50;101360.84;;;14.75;100.00
64844;BME280;51310;52.198;5.422;2023-05-01T12:53:24;101356.81;;;14.69;100.00
64844;BME280;51310;52.198;5.422;2023-05-01T12:55:53;101359.06;;;14.55;100.00
64844;BME280;51310;52.198;5.422;2023-05-01T12:58:20;101354.31;;;14.60;100.00
64844;BME280;51310;52.198;5.422;2023-05-01T13:00:51;101347.59;;;14.43;100.00
64844;BME280;51310;52.198;5.422;2023-05-01T13:03:28;101341.16;;;14.29;100.00
64844;BME280;51310;52.198;5.422;2023-05-01T13:06:03;101344.94;;;14.33;100.00
64844;BME280;51310;52.198;5.422;2023-05-01T13:08:33;101339.94;;;13.97;100.00
64844;BME280;51310;52.198;5.422;2023-05-01T13:11:08;101341.13;;;14.00;100.00
64844;BME280;51310;52.198;5.422;2023-05-01T13:13:35;101342.41;;;13.76;100.00
64844;BME280;51310;52.198;5.422;2023-05-01T13:16:10;101337.56;;;13.70;100.00
64844;BME280;51310;52.198;5.422;2023-05-01T13:18:48;101337.00;;;13.64;100.00
64844;BME280;51310;52.198;5.422;2023-05-01T13:21:18;101339.31;;;13.61;100.00